Flight Track Log - Related Links

Times and Time Zones

All times are in EDT time to prevent confusion due to time zone crossing. See the SWA2130 flight status page for this flight to view local times or setup timezone preferences in your user account.

Time Position Orientation Groundspeed Altitude Reporting Facility
EDT Latitude Longitude Course Direction KTS MPH feet Rate Location/Type
Mon 06:56:42 PM 37.6333 -122.4333 310° West 192 221 2,300  Level Northern Cal TRACON
Mon 06:57:37 PM 37.6667 -122.4833 310° West 220 253 5,500 2,719 Climbing Northern Cal TRACON
Mon 06:59:01 PM 37.6017 -122.5175 203° Southwest 273 314 8,600 2,507 Climbing Oakland Center
Mon 07:00:03 PM 37.5375 -122.4442 138° Southeast 321 369 11,600 3,366 Climbing Oakland Center
Mon 07:01:04 PM 37.4692 -122.3506 133° Southeast 359 413 15,500 3,689 Climbing Oakland Center
Mon 07:02:05 PM 37.3981 -122.2542 133° Southeast 376 433 19,100 3,344 Climbing Oakland Center
Mon 07:03:06 PM 37.3222 -122.1519 133° Southeast 399 459 22,300 3,443 Climbing Oakland Center
Mon 07:04:07 PM 37.2275 -122.0247 133° Southeast 416 479 26,100 3,024 Climbing Oakland Center
Mon 07:05:09 PM 37.1458 -121.9161 133° Southeast 428 493 28,500 2,195 Climbing Oakland Center
Mon 07:06:10 PM 37.0606 -121.8036 134° Southeast 444 511 30,600 2,066 Climbing Oakland Center
Mon 07:07:11 PM 36.9725 -121.6883 134° Southeast 458 527 32,700 2,410 Climbing Oakland Center
Mon 07:08:12 PM 36.8861 -121.5731 133° Southeast 457 526 35,500 2,459 Climbing Oakland Center
Mon 07:09:13 PM 36.7969 -121.4553 133° Southeast 440 506 37,700 1,659 Climbing Oakland Center
Mon 07:10:15 PM 36.7131 -121.3461 134° Southeast 437 503 38,900 1,122 Climbing Oakland Center
Mon 07:11:16 PM 36.6272 -121.2328 133° Southeast 448 516 40,000 1,033 Climbing Oakland Center
Mon 07:12:17 PM 36.5417 -121.1200 133° Southeast 448 516 41,000 492 Climbing Oakland Center
Mon 07:13:18 PM 36.4558 -121.0106 134° Southeast 443 510 41,000  Level Oakland Center
Mon 07:14:19 PM 36.3714 -120.8989 133° Southeast 444 511 41,000  Level Oakland Center
Mon 07:15:21 PM 36.2867 -120.7900 134° Southeast 439 505 41,000  Level Oakland Center
Mon 07:16:22 PM 36.2006 -120.6803 134° Southeast 442 509 41,000  Level Oakland Center
Mon 07:17:23 PM 36.1144 -120.5703 134° Southeast 444 511 41,000  Level Oakland Center
Mon 07:18:24 PM 36.0114 -120.4372 134° Southeast 449 517 41,000  Level Oakland Center
Mon 07:19:26 PM 35.9267 -120.3308 135° Southeast 437 503 41,000  Level Oakland Center
Mon 07:20:27 PM 35.8408 -120.2214 134° Southeast 440 506 41,000  Level Oakland Center
Mon 07:21:28 PM 35.7539 -120.1119 134° Southeast 443 510 41,000  Level Oakland Center
Mon 07:22:30 PM 35.6664 -120.0017 134° Southeast 445 512 41,000  Level Oakland Center
Mon 07:23:31 PM 35.5675 -119.9075 142° Southeast 446 513 41,000 -148 Level Oakland Center
Mon 07:24:32 PM 35.4628 -119.8189 145° Southeast 451 519 40,700 -639 Descending Oakland Center
Mon 07:25:33 PM 35.3603 -119.7303 145° Southeast 448 516 39,700 -927 Descending Oakland Center
Mon 07:26:22 PM 35.2800 -119.6617 145° Southeast 445 512 39,000 -927 Descending Los Angeles Center
Mon 07:27:23 PM 35.1786 -119.5761 145° Southeast 443 510 38,000 -1,756 Descending Los Angeles Center
Mon 07:28:25 PM 35.0781 -119.4903 145° Southeast 440 506 35,400 -2,806 Descending Los Angeles Center
Mon 07:29:27 PM 34.9789 -119.4039 144° Southeast 438 504 32,200 -3,048 Descending Los Angeles Center
Mon 07:30:29 PM 34.8553 -119.2989 145° Southeast 449 517 29,100 -2,710 Descending Los Angeles Center
Mon 07:31:31 PM 34.7556 -119.2161 146° Southeast 437 503 26,600 -2,371 Descending Los Angeles Center
Mon 07:32:33 PM 34.6597 -119.1358 145° Southeast 422 486 24,200 -2,226 Descending Los Angeles Center
Mon 07:33:35 PM 34.5711 -119.0614 145° Southeast 409 471 22,000 -2,129 Descending Los Angeles Center
Mon 07:34:37 PM 34.4831 -118.9872 145° Southeast 382 440 19,800 -2,468 Descending Los Angeles Center
Mon 07:35:39 PM 34.3792 -118.9019 146° Southeast 374 430 16,900 -2,468 Descending Los Angeles Center
Mon 07:36:41 PM 34.2869 -118.8558 158° South 360 414 14,700 -2,129 Descending Los Angeles Center
Mon 07:37:43 PM 34.1925 -118.8219 163° South 354 407 12,500 -1,548 Descending Los Angeles Center
Mon 07:38:45 PM 34.1017 -118.7881 163° South 343 395 11,500 -1,113 Descending Los Angeles Center
Mon 07:39:47 PM 34.0336 -118.7064 135° Southeast 335 386 10,200 -726 Descending Los Angeles Center
Mon 07:40:49 PM 34.0231 -118.5950 96° East 312 359 10,000 -1,016 Descending Los Angeles Center
Mon 07:41:51 PM 34.0136 -118.4967 97° East 296 341 8,100 -1,756 Descending Los Angeles Center
Mon 07:42:52 PM 34.0161 -118.3978 88° East 293 337 6,400 -1,610 Descending Los Angeles Center
Mon 07:43:54 PM 34.0272 -118.2983 82° East 296 341 4,800 -1,065 Descending Los Angeles Center
Mon 07:44:56 PM 34.0175 -118.2222 99° East 261 300 4,200 -919 Descending Los Angeles Center
Mon 07:45:58 PM 33.9744 -118.2592 215° Southwest 214 246 2,900 -1,333 Descending Los Angeles Center
Mon 07:47:02 PM 33.9603 -118.3208 255° West 201 231 1,400 -1,161 Descending Los Angeles Center
Mon 07:48:02 PM 33.9553 -118.3797 264° West 166 191 500 -639 Descending Los Angeles Center
Mon 07:49:04 PM 33.9517 -118.4150 263° West 146 168 100 -387 Descending Los Angeles Center
Mon 07:51:00 PM 33.9425 -118.4081 228° Southwest  Level Estimated

Login

Don't have an account? Register now (free) for customized features, flight alerts, and more!